Time;durP1;ratioP1;P1;durP2;ratioP2;P2;SDS_P1;SDS_P2;PMS_P1;PMS_P2;Temp;Humidity;BMP_temperature;BMP_pressure;BME280_temperature;BME280_humidity;BME280_pressure;Samples;Min_cycle;Max_cycle;Signal;HPM_P1;HPM_P2
2021/03/19 00:00:06;;;;;;;30.58;16.83;;;;;;;10.88;52.83;71774.00;4956327;29;20475;-83
2021/03/19 00:02:33;;;;;;;40.85;15.73;;;;;;;10.84;52.09;71769.22;4943072;28;20074;-82
2021/03/19 00:05:00;;;;;;;31.40;11.98;;;;;;;10.94;51.18;71781.16;4955508;28;20114;-83
2021/03/19 00:07:27;;;;;;;24.52;9.38;;;;;;;11.33;51.29;71829.19;4974713;28;20928;-83
2021/03/19 00:09:53;;;;;;;25.38;9.45;;;;;;;10.96;51.39;71783.53;4974391;28;20031;-83
2021/03/19 00:12:21;;;;;;;33.15;10.73;;;;;;;11.09;50.75;71796.28;4975354;28;20030;-82
2021/03/19 00:14:48;;;;;;;28.23;10.63;;;;;;;11.57;51.20;71856.63;4957597;28;20027;-81
2021/03/19 00:17:15;;;;;;;28.80;10.73;;;;;;;11.38;50.25;71831.19;4957668;28;20034;-82
2021/03/19 00:19:42;;;;;;;22.63;9.95;;;;;;;11.74;50.22;71872.94;4954228;28;20027;-82
2021/03/19 00:22:08;;;;;;;26.75;9.02;;;;;;;11.36;49.95;71832.75;4956085;28;20506;-82
2021/03/19 00:24:35;;;;;;;35.33;9.13;;;;;;;10.42;50.14;71721.59;4975428;28;20035;-82
2021/03/19 00:27:02;;;;;;;22.98;8.05;;;;;;;11.64;49.60;71864.97;4975628;28;20558;-81
2021/03/19 00:29:29;;;;;;;27.02;7.78;;;;;;;10.66;48.56;71751.72;4975611;28;20030;-81
2021/03/19 00:31:55;;;;;;;16.98;7.35;;;;;;;11.54;48.36;71850.28;4975523;28;20392;-82
2021/03/19 00:34:22;;;;;;;34.53;8.95;;;;;;;12.13;48.15;71918.25;4958673;28;20122;-82
2021/03/19 00:36:49;;;;;;;24.80;7.22;;;;;;;11.74;47.90;71867.41;4969493;28;20098;-81
2021/03/19 00:39:16;;;;;;;30.70;7.75;;;;;;;11.83;47.96;71885.81;4956401;28;20039;-81
2021/03/19 00:41:43;;;;;;;19.10;7.13;;;;;;;12.06;47.72;71909.91;4955726;28;20389;-82
2021/03/19 00:44:10;;;;;;;34.40;8.52;;;;;;;12.39;47.81;71950.84;4955563;28;20051;-81
2021/03/19 00:46:36;;;;;;;22.73;8.50;;;;;;;12.45;47.25;71955.25;4955325;28;20027;-82
2021/03/19 00:49:03;;;;;;;29.60;8.15;;;;;;;11.91;47.97;71895.94;4963250;28;20027;-82
2021/03/19 00:51:30;;;;;;;25.58;8.45;;;;;;;11.46;48.12;71843.47;4975210;28;20031;-82
2021/03/19 00:53:57;;;;;;;27.33;8.70;;;;;;;11.66;48.07;71863.41;4974727;28;20517;-82
2021/03/19 00:56:24;;;;;;;29.27;7.82;;;;;;;12.17;47.18;71920.28;4974797;28;20518;-82
2021/03/19 00:58:50;;;;;;;27.45;9.25;;;;;;;11.50;47.32;71848.88;4973653;28;20034;-82
2021/03/19 01:01:17;;;;;;;27.38;8.77;;;;;;;11.98;47.64;71903.72;4970015;28;20038;-81
2021/03/19 01:03:44;;;;;;;30.27;8.95;;;;;;;12.26;47.82;71932.59;4955146;28;20118;-81
2021/03/19 01:06:11;;;;;;;20.02;9.05;;;;;;;12.32;47.07;71942.50;4954756;28;20032;-81
2021/03/19 01:08:38;;;;;;;27.45;9.90;;;;;;;12.44;46.90;71956.22;4955047;29;20452;-80
2021/03/19 01:11:05;;;;;;;24.77;8.65;;;;;;;12.81;46.53;71996.41;4954826;29;20046;-82
2021/03/19 01:13:32;;;;;;;25.05;9.30;;;;;;;11.62;46.38;71861.97;4955101;29;20038;-82
2021/03/19 01:15:59;;;;;;;22.88;8.55;;;;;;;12.40;47.14;71948.69;4955019;29;20031;-82
2021/03/19 01:18:30;;;;;;;34.85;9.75;;;;;;;12.73;45.89;71987.47;4956579;29;20031;-82
2021/03/19 01:20:57;;;;;;;30.67;8.18;;;;;;;12.77;45.92;71988.28;4958922;28;20027;-82
2021/03/19 01:23:24;;;;;;;21.42;7.72;;;;;;;12.39;45.97;71944.72;4942324;28;20400;-81
2021/03/19 01:25:51;;;;;;;19.17;8.45;;;;;;;12.69;46.56;71982.69;4974807;28;20038;-82
2021/03/19 01:28:18;;;;;;;23.88;9.48;;;;;;;12.26;46.15;71932.59;4973713;28;20042;-83
2021/03/19 01:30:46;;;;;;;25.73;8.57;;;;;;;13.27;45.68;72046.75;4977744;28;20024;-80
2021/03/19 01:33:13;;;;;;;25.00;9.05;;;;;;;13.28;45.29;72047.97;4957343;28;20023;-78
2021/03/19 01:35:41;;;;;;;26.17;10.90;;;;;;;12.86;45.97;72001.78;4968850;28;20035;-78
2021/03/19 01:38:09;;;;;;;24.83;9.73;;;;;;;12.73;45.71;71984.69;4966816;28;20050;-80
2021/03/19 01:40:43;;;;;;;21.05;10.27;;;;;;;13.38;45.50;72061.47;4962620;28;20038;-83
2021/03/19 01:43:30;;;;;;;25.00;10.88;;;;;;;13.10;45.61;72029.22;4940759;28;20032;-82
2021/03/19 01:46:24;;;;;;;36.42;10.63;;;;;;;13.33;46.23;72055.50;4971807;28;20094;-81
2021/03/19 01:49:27;;;;;;;29.45;9.80;;;;;;;13.77;46.01;72106.84;4973107;28;20065;-79
2021/03/19 01:52:30;;;;;;;35.05;9.05;;;;;;;13.98;45.87;72127.97;4972393;28;20078;-81
2021/03/19 01:55:34;;;;;;;30.65;9.13;;;;;;;13.60;46.28;72089.31;4972990;28;20023;-82
2021/03/19 01:58:37;;;;;;;22.25;9.00;;;;;;;13.75;46.02;72101.72;4971703;28;20125;-82
2021/03/19 02:01:40;;;;;;;20.83;8.10;;;;;;;13.84;46.16;72111.84;4944833;28;20031;-81
2021/03/19 02:04:44;;;;;;;22.65;9.93;;;;;;;14.00;45.78;72135.28;4970327;28;20042;-80
2021/03/19 02:07:47;;;;;;;23.95;8.63;;;;;;;14.19;45.59;72155.22;4971620;28;20034;-80
2021/03/19 02:10:51;;;;;;;33.75;10.38;;;;;;;14.06;45.54;72137.53;4968801;28;20038;-80
2021/03/19 02:13:54;;;;;;;24.52;9.55;;;;;;;14.15;44.77;72149.84;4969404;28;20435;-80
2021/03/19 02:16:57;;;;;;;28.02;10.85;;;;;;;14.21;44.78;72157.59;4969860;28;20035;-80
2021/03/19 02:20:01;;;;;;;25.42;9.50;;;;;;;14.29;44.49;72166.56;4962709;28;20065;-80
2021/03/19 02:23:04;;;;;;;26.30;10.88;;;;;;;14.22;44.48;72158.22;4971839;28;20042;-81
2021/03/19 02:26:07;;;;;;;26.92;9.68;;;;;;;14.28;44.42;72167.53;4972111;28;20031;-83
2021/03/19 02:29:11;;;;;;;24.88;8.05;;;;;;;14.35;44.68;72170.38;4972933;28;20033;-84
2021/03/19 02:31:59;;;;;;;20.92;9.10;;;;;;;14.45;44.34;72182.31;4948913;28;20054;-81
2021/03/19 02:34:37;;;;;;;29.45;11.38;;;;;;;13.58;44.32;72086.91;4972014;28;20027;-81
2021/03/19 02:37:04;;;;;;;26.65;10.40;;;;;;;14.22;44.39;72160.97;4962671;28;20515;-82
2021/03/19 02:39:30;;;;;;;32.50;9.35;;;;;;;13.37;44.39;72060.28;4952532;28;20403;-82
2021/03/19 02:41:57;;;;;;;33.88;9.77;;;;;;;13.80;44.51;72113.19;4935230;28;20481;-84
2021/03/19 02:44:24;;;;;;;20.13;9.48;;;;;;;14.19;44.00;72154.63;4952410;28;20046;-83
2021/03/19 02:46:51;;;;;;;28.20;9.27;;;;;;;14.90;44.03;72234.31;4933392;28;20099;-82
2021/03/19 02:49:18;;;;;;;31.77;11.90;;;;;;;14.15;43.28;72153.19;4952404;28;20484;-82
2021/03/19 02:51:45;;;;;;;29.08;10.30;;;;;;;14.60;43.19;72199.03;4934775;29;20037;-83
2021/03/19 02:54:12;;;;;;;29.35;11.25;;;;;;;13.53;43.46;72081.56;4951814;29;21020;-84
2021/03/19 02:56:39;;;;;;;29.13;11.88;;;;;;;13.22;43.40;72040.81;4952049;29;20034;-84
2021/03/19 02:59:05;;;;;;;26.23;9.85;;;;;;;14.81;43.46;72226.34;4951313;29;20054;-83
2021/03/19 03:01:32;;;;;;;23.10;10.90;;;;;;;14.64;43.82;72203.84;4950496;28;20114;-84
2021/03/19 03:03:59;;;;;;;33.42;11.50;;;;;;;14.13;43.76;72147.47;4950448;29;20023;-85
2021/03/19 03:06:40;;;;;;;33.50;9.38;;;;;;;13.92;43.60;72120.81;4950521;29;20069;-82
2021/03/19 03:09:13;;;;;;;27.85;11.30;;;;;;;14.49;43.21;72192.03;4950855;29;20492;-82
2021/03/19 03:11:41;;;;;;;22.55;11.88;;;;;;;14.93;43.81;72240.09;4951889;29;20028;-84
2021/03/19 03:14:12;;;;;;;32.55;10.90;;;;;;;14.06;43.21;72139.69;4934200;29;20023;-84
2021/03/19 03:16:39;;;;;;;25.50;9.20;;;;;;;14.13;43.55;72148.06;4950036;29;20027;-83
2021/03/19 03:19:07;;;;;;;21.38;11.32;;;;;;;14.40;44.04;72179.13;4925515;29;20472;-83
2021/03/19 03:21:35;;;;;;;24.33;12.02;;;;;;;14.10;43.22;72147.25;4949225;28;20054;-83
2021/03/19 03:24:02;;;;;;;24.60;10.68;;;;;;;13.62;43.36;72086.19;4951743;28;20170;-82
2021/03/19 03:26:30;;;;;;;35.35;10.02;;;;;;;15.09;43.20;72255.84;4953019;28;20482;-83
2021/03/19 03:28:57;;;;;;;24.30;11.45;;;;;;;14.71;43.24;72211.59;4937593;29;20471;-83
2021/03/19 03:31:25;;;;;;;32.00;11.02;;;;;;;14.10;43.51;72145.06;4954774;29;20440;-85
2021/03/19 03:33:51;;;;;;;26.75;11.40;;;;;;;14.96;42.93;72245.84;4954957;28;20027;-86
2021/03/19 03:36:21;;;;;;;35.90;13.70;;;;;;;14.21;42.97;72157.03;4956874;28;20046;-84
2021/03/19 03:38:48;;;;;;;29.45;13.07;;;;;;;14.47;42.82;72189.66;4957740;28;20027;-83
2021/03/19 03:41:19;;;;;;;24.52;10.40;;;;;;;14.27;42.31;72163.59;4956967;28;20026;-84
2021/03/19 03:43:47;;;;;;;35.13;12.38;;;;;;;15.28;42.67;72282.91;4956664;28;20027;-83
2021/03/19 03:46:17;;;;;;;36.13;14.50;;;;;;;15.21;42.24;72271.75;4972775;28;20054;-84
2021/03/19 03:48:44;;;;;;;26.80;11.68;;;;;;;14.48;42.15;72185.31;4958431;28;20046;-83
2021/03/19 03:51:12;;;;;;;22.40;11.73;;;;;;;14.81;42.20;72229.13;4974811;28;20380;-82
2021/03/19 03:53:40;;;;;;;32.35;12.55;;;;;;;15.59;43.19;72316.00;4969891;28;20026;-84
2021/03/19 03:56:11;;;;;;;26.10;12.70;;;;;;;15.56;42.41;72310.22;4948890;28;20035;-77
2021/03/19 03:58:38;;;;;;;27.77;12.02;;;;;;;15.33;42.33;72286.09;4963750;28;20033;-84
2021/03/19 04:01:06;;;;;;;37.38;14.05;;;;;;;15.25;42.44;72274.38;4954862;28;20027;-84
2021/03/19 04:03:33;;;;;;;23.45;12.27;;;;;;;14.90;42.37;72236.50;4955830;29;20031;-83
2021/03/19 04:06:00;;;;;;;32.30;13.60;;;;;;;14.74;42.99;72217.97;4954787;28;20023;-80
2021/03/19 04:08:29;;;;;;;34.90;15.55;;;;;;;14.64;43.09;72209.94;4976070;28;20034;-85
2021/03/19 04:10:58;;;;;;;38.90;14.07;;;;;;;15.34;42.98;72290.06;4953371;28;20118;-81
2021/03/19 04:13:28;;;;;;;30.63;14.18;;;;;;;15.18;43.42;72269.38;4957156;28;20041;-83
2021/03/19 04:15:56;;;;;;;26.30;14.00;;;;;;;15.24;44.38;72272.56;4942720;28;20126;-83
2021/03/19 04:18:24;;;;;;;31.48;16.17;;;;;;;14.53;45.65;72194.06;4955626;28;20213;-83
2021/03/19 04:20:53;;;;;;;35.50;15.23;;;;;;;13.67;46.55;72092.16;4974789;28;20473;-86
2021/03/19 04:23:26;;;;;;;30.55;17.48;;;;;;;14.19;47.84;72157.38;4974051;28;20026;-83
2021/03/19 04:25:53;;;;;;;40.60;15.73;;;;;;;13.28;48.21;72053.50;4973561;28;20031;-83
2021/03/19 04:28:22;;;;;;;34.25;15.70;;;;;;;14.00;48.65;72132.53;4975143;28;20110;-85
2021/03/19 04:30:49;;;;;;;32.63;16.47;;;;;;;13.92;48.35;72126.34;4957811;28;20027;-84
2021/03/19 04:33:26;;;;;;;37.35;17.95;;;;;;;14.47;47.83;72190.25;4973829;28;20498;-83
2021/03/19 04:36:17;;;;;;;29.90;16.15;;;;;;;14.84;46.55;72229.91;4981305;28;21822;-81
2021/03/19 04:38:45;;;;;;;32.00;17.10;;;;;;;13.94;47.40;72125.97;4977040;28;20038;-82
2021/03/19 04:41:13;;;;;;;43.05;17.45;;;;;;;14.46;46.06;72188.44;4974580;28;20506;-82
2021/03/19 04:43:39;;;;;;;34.67;16.25;;;;;;;14.54;45.56;72192.47;4974357;28;20027;-84
2021/03/19 04:46:06;;;;;;;39.90;15.52;;;;;;;14.46;45.48;72182.94;4974356;28;20033;-84
2021/03/19 04:48:33;;;;;;;28.95;16.52;;;;;;;14.93;44.22;72239.47;4974340;28;20044;-83
2021/03/19 04:51:00;;;;;;;46.88;19.20;;;;;;;15.43;43.21;72297.44;4956954;28;20031;-84
2021/03/19 04:53:27;;;;;;;32.03;17.58;;;;;;;15.00;42.71;72245.69;4973966;28;20077;-83
2021/03/19 04:55:54;;;;;;;36.72;16.83;;;;;;;14.80;43.51;72224.53;4973961;28;20026;-83
2021/03/19 04:58:20;;;;;;;32.42;16.33;;;;;;;15.70;43.07;72331.31;4974264;28;20499;-83
2021/03/19 05:00:47;;;;;;;35.10;15.98;;;;;;;15.87;42.80;72348.28;4974335;28;20391;-83
2021/03/19 05:03:14;;;;;;;31.35;18.67;;;;;;;13.94;42.75;72123.19;4957022;28;20038;-83
2021/03/19 05:05:41;;;;;;;34.38;17.85;;;;;;;14.57;44.91;72198.81;4974733;28;20101;-83
2021/03/19 05:08:08;;;;;;;32.75;18.27;;;;;;;15.09;45.61;72261.38;4957158;28;20046;-83
2021/03/19 05:10:36;;;;;;;35.47;19.60;;;;;;;14.06;46.18;72137.53;4956116;28;20027;-83
2021/03/19 05:13:06;;;;;;;42.00;19.67;;;;;;;14.15;46.19;72152.63;4953669;29;20024;-84
2021/03/19 05:15:34;;;;;;;35.75;16.67;;;;;;;14.42;47.01;72180.91;4939153;29;20079;-84
2021/03/19 05:18:01;;;;;;;38.55;19.50;;;;;;;14.29;47.16;72169.34;4939861;29;20046;-84
2021/03/19 05:20:29;;;;;;;38.20;19.80;;;;;;;14.39;47.15;72177.31;4957194;29;20094;-86
2021/03/19 05:22:56;;;;;;;38.30;20.65;;;;;;;13.88;46.23;72118.78;4941798;29;20050;-86
2021/03/19 05:25:27;;;;;;;38.88;20.63;;;;;;;13.98;45.92;72130.13;4967613;28;20562;-85
2021/03/19 05:27:54;;;;;;;43.03;19.27;;;;;;;13.78;46.18;72105.28;4963240;28;20105;-85
2021/03/19 05:30:23;;;;;;;30.60;19.30;;;;;;;14.81;45.96;72222.97;4950217;28;20027;-85
2021/03/19 05:32:50;;;;;;;29.55;20.00;;;;;;;13.95;46.33;72127.75;4967742;28;20035;-85
2021/03/19 05:35:21;;;;;;;38.22;20.25;;;;;;;13.52;44.97;72077.59;4972597;28;20053;-87
2021/03/19 05:37:49;;;;;;;37.92;20.13;;;;;;;15.29;44.72;72279.13;4959638;28;20054;-85
2021/03/19 05:40:24;;;;;;;38.05;23.35;;;;;;;15.18;44.61;72272.16;4970374;28;20035;-85
2021/03/19 05:42:52;;;;;;;46.95;21.13;;;;;;;14.71;44.50;72212.19;4955985;28;20077;-85
2021/03/19 05:45:24;;;;;;;37.38;20.73;;;;;;;15.22;44.90;72272.94;4965273;28;20031;-84
2021/03/19 05:47:53;;;;;;;33.63;20.65;;;;;;;14.78;45.41;72225.50;4955452;28;20126;-85
2021/03/19 05:50:27;;;;;;;39.33;20.73;;;;;;;15.21;45.28;72269.00;4957978;28;20447;-85
2021/03/19 05:52:55;;;;;;;35.85;20.67;;;;;;;14.19;46.10;72158.00;4963898;28;20038;-84
2021/03/19 05:55:25;;;;;;;44.63;20.83;;;;;;;14.80;46.75;72221.78;4965171;28;20088;-85
2021/03/19 05:57:59;;;;;;;38.40;21.33;;;;;;;14.50;47.28;72187.69;4968393;28;20491;-85
2021/03/19 06:00:27;;;;;;;39.17;20.88;;;;;;;14.72;46.94;72218.31;4963826;28;20031;-86
2021/03/19 06:02:55;;;;;;;39.08;21.33;;;;;;;14.92;46.60;72236.13;4965650;28;20027;-85
2021/03/19 06:05:31;;;;;;;36.50;21.98;;;;;;;14.90;46.74;72234.31;4955780;28;20094;-85
2021/03/19 06:08:01;;;;;;;38.60;22.77;;;;;;;15.05;46.62;72253.84;4955358;28;20638;-85
2021/03/19 06:10:34;;;;;;;;;;;;;;;14.88;46.85;72234.72;4955486;28;20042;-87
2021/03/19 06:13:16;;;;;;;42.95;21.42;;;;;;;15.11;46.90;72261.00;4955611;28;20450;-86
2021/03/19 06:15:46;;;;;;;43.13;24.02;;;;;;;14.06;46.86;72137.53;4957113;28;20114;-83
2021/03/19 06:18:25;;;;;;;36.85;19.55;;;;;;;15.02;46.91;72250.22;4973128;28;20111;-85
2021/03/19 06:21:27;;;;;;;40.33;20.52;;;;;;;14.48;47.47;72185.31;4955167;28;20035;-86
2021/03/19 06:24:17;;;;;;;44.28;22.20;;;;;;;14.68;47.40;72210.78;4952601;28;20042;-85
2021/03/19 06:26:44;;;;;;;;;;;;;;;14.90;46.60;72237.09;4956420;28;20049;-85
2021/03/19 06:29:42;;;;;;;36.88;22.05;;;;;;;14.85;46.75;72233.28;4972828;28;19925;-86
2021/03/19 06:32:21;;;;;;;39.38;19.98;;;;;;;14.81;46.83;72226.34;4965706;28;20023;-83
2021/03/19 06:34:54;;;;;;;32.70;20.15;;;;;;;13.32;46.69;72057.66;4968849;28;20073;-85
2021/03/19 06:37:29;;;;;;;45.47;20.52;;;;;;;14.77;47.20;72221.56;4965363;28;20047;-85
2021/03/19 06:39:59;;;;;;;30.92;19.48;;;;;;;14.30;47.40;72167.78;4958025;28;20113;-85
2021/03/19 06:42:25;;;;;;;56.47;22.23;;;;;;;14.23;47.37;72162.78;4958259;28;20022;-85
2021/03/19 06:45:20;;;;;;;42.72;20.17;;;;;;;14.67;47.50;72209.59;4957124;28;20058;-85
2021/03/19 06:47:49;;;;;;;41.08;19.20;;;;;;;13.90;46.81;72123.97;4972089;28;20062;-85
2021/03/19 06:50:25;;;;;;;36.58;20.20;;;;;;;14.70;46.79;72213.16;4951179;28;20038;-85
2021/03/19 06:53:11;;;;;;;37.58;21.77;;;;;;;14.97;46.40;72244.28;4971428;28;20471;-86
2021/03/19 06:55:42;;;;;;;30.88;19.95;;;;;;;15.11;46.72;72263.78;4954733;28;20478;-85
2021/03/19 06:58:08;;;;;;;;;;;;;;;15.19;46.29;72267.81;4955338;28;20077;-85
2021/03/19 07:00:49;;;;;;;31.40;18.92;;;;;;;14.41;46.94;72183.09;4971956;28;19917;-85
2021/03/19 07:03:22;;;;;;;35.97;22.95;;;;;;;14.89;48.15;72233.13;4954927;28;20031;-86
2021/03/19 07:06:23;;;;;;;48.88;21.33;;;;;;;14.50;48.41;72187.69;4972271;28;20069;-85
2021/03/19 07:09:16;;;;;;;51.72;22.73;;;;;;;13.73;48.94;72098.72;4912922;28;20515;-85
2021/03/19 07:12:07;;;;;;;56.13;24.15;;;;;;;14.15;49.62;72149.84;4972599;28;20030;-85
2021/03/19 07:14:42;;;;;;;37.28;23.02;;;;;;;14.13;49.81;72145.28;4959467;28;20034;-84
2021/03/19 07:17:21;;;;;;;34.20;23.15;;;;;;;14.09;50.23;72141.09;4959887;28;20046;-85
2021/03/19 07:20:04;;;;;;;45.88;23.65;;;;;;;13.96;50.34;72128.34;4976604;28;20062;-84
2021/03/19 07:23:08;;;;;;;39.78;20.83;;;;;;;14.16;49.77;72151.66;4960681;28;20042;-84
2021/03/19 07:25:55;;;;;;;44.85;22.27;;;;;;;14.25;49.43;72161.78;4961316;28;20390;-85
2021/03/19 07:28:40;;;;;;;41.92;21.25;;;;;;;13.95;48.79;72129.91;4959716;28;20102;-84
2021/03/19 07:31:16;;;;;;;37.65;22.58;;;;;;;14.52;48.49;72190.09;4959172;28;20031;-85
2021/03/19 07:34:14;;;;;;;48.83;25.35;;;;;;;13.84;49.42;72111.25;4955631;28;20121;-85
2021/03/19 07:37:12;;;;;;;47.92;24.20;;;;;;;13.93;51.24;72125.38;4970861;28;20043;-84
2021/03/19 07:39:55;;;;;;;44.78;25.55;;;;;;;12.39;52.28;71948.09;4954202;28;20065;-84
2021/03/19 07:42:28;;;;;;;44.67;24.73;;;;;;;13.55;53.29;72084.53;4954517;28;20049;-85
2021/03/19 07:45:24;;;;;;;45.00;24.80;;;;;;;13.55;53.71;72081.16;4954586;28;20026;-86
2021/03/19 07:48:19;;;;;;;44.35;25.58;;;;;;;13.53;53.15;72078.78;4936882;28;20045;-84
2021/03/19 07:50:49;;;;;;;58.05;26.08;;;;;;;13.78;53.19;72107.44;4951114;28;20081;-88
2021/03/19 07:53:19;;;;;;;35.63;22.08;;;;;;;13.80;51.82;72110.44;4971392;28;20034;-89
2021/03/19 07:56:30;;;;;;;48.05;22.83;;;;;;;13.61;51.91;72087.75;4960408;28;20030;-89
2021/03/19 07:59:29;;;;;;;42.78;23.33;;;;;;;13.31;52.08;72055.88;4976510;28;20030;-88
2021/03/19 08:02:12;;;;;;;61.33;24.55;;;;;;;13.45;52.03;72071.97;4965403;28;21402;-89
2021/03/19 08:05:02;;;;;;;41.50;25.25;;;;;;;12.42;52.33;71948.91;4982696;28;20655;-93
2021/03/19 08:07:35;;;;;;;51.22;23.67;;;;;;;12.08;52.01;71909.56;4975376;28;20038;-86
2021/03/19 08:10:06;;;;;;;51.92;24.90;;;;;;;13.23;51.62;72046.91;4958494;28;20042;-93
2021/03/19 08:12:49;;;;;;;38.92;22.48;;;;;;;12.99;52.35;72020.06;4959273;28;20030;-91
2021/03/19 08:15:38;;;;;;;49.92;26.30;;;;;;;12.66;53.24;71981.28;4969394;28;20476;-93
2021/03/19 08:18:32;;;;;;;44.85;23.40;;;;;;;12.87;52.92;72005.72;4972107;28;20030;-90
2021/03/19 08:21:05;;;;;;;46.95;24.27;;;;;;;12.80;54.22;71997.97;4975178;28;20024;-90
2021/03/19 08:23:41;;;;;;;44.47;23.67;;;;;;;9.97;54.57;71667.59;4972574;28;20031;-93
2021/03/19 08:26:21;;;;;;;43.25;23.40;;;;;;;12.79;53.43;71991.28;4986674;28;20121;-93
2021/03/19 08:28:56;;;;;;;;;;;;;;;13.02;53.24;72016.94;4958782;28;20023;-94
2021/03/19 08:31:59;;;;;;;51.22;22.35;;;;;;;12.34;53.89;71944.28;4971953;28;19924;-92
2021/03/19 08:35:03;;;;;;;40.58;23.00;;;;;;;12.48;54.28;71960.97;4945356;28;20041;-93
2021/03/19 08:37:40;;;;;;;47.17;21.55;;;;;;;12.70;53.23;71981.13;4957130;29;20059;-94
2021/03/19 08:40:19;;;;;;;44.40;23.63;;;;;;;12.64;53.04;71978.88;4960137;28;20034;-91
2021/03/19 08:42:52;;;;;;;44.22;23.52;;;;;;;11.57;52.21;71853.25;4978979;28;20026;-90
2021/03/19 08:45:23;;;;;;;45.30;22.27;;;;;;;12.99;51.91;72020.06;4957603;28;20450;-91
2021/03/19 08:47:53;;;;;;;40.97;23.83;;;;;;;12.69;52.42;71984.84;4956960;28;20038;-91
2021/03/19 08:50:36;;;;;;;;;;;;;;;12.83;51.67;71995.44;4961652;28;20122;-91
2021/03/19 08:53:05;;;;;;;45.15;22.25;;;;;;;12.98;51.35;72018.88;4967207;28;19945;-88
2021/03/19 08:55:34;;;;;;;47.00;23.05;;;;;;;12.98;52.16;72018.25;4975219;28;20031;-88
2021/03/19 08:58:29;;;;;;;41.88;22.73;;;;;;;13.05;51.82;72023.25;4968481;28;20027;-92
2021/03/19 09:01:07;;;;;;;46.70;23.23;;;;;;;12.18;51.48;71927.00;4965064;28;20094;-90
2021/03/19 09:03:46;;;;;;;42.05;23.83;;;;;;;13.31;51.06;72050.34;4956402;28;20038;-90
2021/03/19 09:06:22;;;;;;;42.45;23.15;;;;;;;13.17;51.94;72040.34;4978704;28;20046;-89
2021/03/19 09:09:02;;;;;;;42.05;25.73;;;;;;;12.54;52.62;71968.13;4957831;28;20480;-91
2021/03/19 09:11:38;;;;;;;43.10;25.70;;;;;;;12.81;53.48;71995.81;4958620;28;20479;-87
2021/03/19 09:14:05;;;;;;;44.70;25.17;;;;;;;12.81;53.49;71995.81;4954812;28;20416;-90
2021/03/19 09:16:58;;;;;;;43.70;26.08;;;;;;;12.73;54.14;71987.47;4959662;28;20034;-91
2021/03/19 09:19:52;;;;;;;52.60;27.95;;;;;;;12.65;53.65;71980.66;4959606;28;20027;-92
2021/03/19 09:22:22;;;;;;;39.90;27.15;;;;;;;12.63;53.65;71977.69;4970515;28;20396;-88
2021/03/19 09:25:11;;;;;;;47.65;28.30;;;;;;;12.64;53.92;71976.72;4963290;28;20090;-88
2021/03/19 09:27:48;;;;;;;48.97;26.00;;;;;;;12.56;52.73;71969.94;4972006;28;20031;-87
2021/03/19 09:30:15;;;;;;;56.40;30.00;;;;;;;12.46;52.92;71953.09;4953969;28;20090;-89
2021/03/19 09:32:47;;;;;;;53.97;30.55;;;;;;;12.33;53.27;71943.69;4952372;29;20039;-87
2021/03/19 09:35:38;;;;;;;51.63;29.75;;;;;;;12.18;53.75;71924.22;4949675;28;20031;-87
2021/03/19 09:38:34;;;;;;;55.35;31.90;;;;;;;12.04;54.74;71907.53;4954263;28;20050;-88
2021/03/19 09:41:04;;;;;;;65.55;32.42;;;;;;;11.48;54.58;71843.13;4942067;29;20032;-90
2021/03/19 09:43:46;;;;;;;54.65;31.45;;;;;;;11.64;54.26;71864.97;4957129;28;20436;-90
2021/03/19 09:46:33;;;;;;;64.38;32.53;;;;;;;11.47;53.73;71845.28;4954934;29;20452;-89
2021/03/19 09:49:09;;;;;;;57.83;34.15;;;;;;;11.88;53.68;71892.38;4954758;28;20038;-89
2021/03/19 09:51:45;;;;;;;68.55;35.53;;;;;;;10.52;53.50;71735.66;4960847;28;20411;-90
2021/03/19 09:54:34;;;;;;;56.70;33.40;;;;;;;11.56;53.98;71852.06;4954201;28;20484;-85
2021/03/19 09:57:11;;;;;;;44.85;24.80;;;;;;;12.02;53.41;71905.13;4951868;28;20031;-85
2021/03/19 09:59:42;;;;;;;63.13;36.30;;;;;;;11.73;53.64;71872.34;4951642;28;20033;-86
2021/03/19 10:02:31;;;;;;;60.70;33.33;;;;;;;10.81;53.78;71763.50;4970609;28;20081;-85
2021/03/19 10:05:35;;;;;;;47.50;24.43;;;;;;;11.49;53.37;71841.56;4966538;28;20031;-85
2021/03/19 10:08:02;;;;;;;57.38;31.77;;;;;;;10.59;52.92;71744.00;4942534;28;20040;-86
2021/03/19 10:10:41;;;;;;;55.38;31.50;;;;;;;11.64;51.97;71859.44;4950819;28;20043;-86
2021/03/19 10:13:23;;;;;;;63.20;31.90;;;;;;;11.47;52.62;71845.28;4956141;28;20115;-86
2021/03/19 10:15:52;;;;;;;51.88;32.38;;;;;;;10.29;51.68;71703.94;4965951;28;20031;-86
2021/03/19 10:18:25;;;;;;;66.30;34.35;;;;;;;11.37;51.96;71830.63;4972442;28;20074;-87
2021/03/19 10:20:55;;;;;;;53.53;31.70;;;;;;;10.50;51.67;71733.88;4961733;28;20118;-85
2021/03/19 10:23:23;;;;;;;54.95;31.15;;;;;;;11.74;51.48;71870.78;4950976;28;20039;-84
2021/03/19 10:25:51;;;;;;;58.92;29.80;;;;;;;10.98;51.21;71785.91;4953488;28;20472;-86
2021/03/19 10:28:21;;;;;;;57.65;31.95;;;;;;;11.88;51.28;71892.38;4953580;28;20150;-86
2021/03/19 10:30:51;;;;;;;63.78;32.58;;;;;;;11.72;51.64;71873.31;4951666;28;20066;-85
2021/03/19 10:33:21;;;;;;;53.88;30.65;;;;;;;11.93;51.13;71897.16;4954028;28;20122;-87
2021/03/19 10:35:57;;;;;;;49.95;33.70;;;;;;;12.08;50.81;71915.06;4954561;28;20031;-85
2021/03/19 10:38:34;;;;;;;63.30;31.42;;;;;;;11.41;51.09;71837.53;4955358;28;20050;-87
2021/03/19 10:41:08;;;;;;;67.28;33.95;;;;;;;12.02;51.09;71907.88;4954887;28;20563;-84
2021/03/19 10:43:55;;;;;;;61.95;36.85;;;;;;;11.26;51.84;71815.34;4955140;28;20037;-85
2021/03/19 10:46:39;;;;;;;51.17;34.47;;;;;;;11.36;52.01;71832.19;4946523;28;20038;-87
2021/03/19 10:49:32;;;;;;;54.75;33.67;;;;;;;12.00;52.44;71906.09;4956526;28;20122;-87
2021/03/19 10:52:10;;;;;;;63.92;34.72;;;;;;;11.71;51.99;71872.13;4934106;28;20046;-86
2021/03/19 10:54:44;;;;;;;65.88;39.85;;;;;;;12.13;52.51;71914.94;4954359;28;20041;-87
2021/03/19 10:57:34;;;;;;;52.55;33.85;;;;;;;11.89;52.97;71893.00;4955869;28;20127;-86
2021/03/19 11:00:21;;;;;;;61.13;33.80;;;;;;;10.79;53.55;71764.47;4973896;28;20033;-84
2021/03/19 11:03:05;;;;;;;59.42;33.22;;;;;;;11.42;55.25;71838.72;4961696;28;20040;-86
2021/03/19 11:05:52;;;;;;;64.18;37.90;;;;;;;9.98;55.95;71671.53;4957911;28;20035;-86
2021/03/19 11:08:19;;;;;;;60.50;33.85;;;;;;;9.64;56.15;71635.00;4949007;28;20086;-89
2021/03/19 11:10:52;;;;;;;63.00;35.53;;;;;;;10.98;56.24;71788.09;4952758;28;20039;-88
2021/03/19 11:13:26;;;;;;;55.00;31.23;;;;;;;10.91;55.71;71777.56;4954090;28;20125;-86
2021/03/19 11:15:59;;;;;;;54.70;32.10;;;;;;;10.54;54.76;71733.13;4950235;28;20034;-86
2021/03/19 11:18:40;;;;;;;62.70;33.78;;;;;;;10.76;54.47;71760.88;4947635;29;20047;-86
2021/03/19 11:21:07;;;;;;;63.80;33.53;;;;;;;10.76;53.88;71760.31;4951623;28;20073;-87
2021/03/19 11:23:39;;;;;;;58.25;30.75;;;;;;;10.61;53.81;71745.75;4952901;28;20026;-85
2021/03/19 11:26:24;;;;;;;69.35;34.38;;;;;;;10.60;53.52;71745.19;4951484;28;20027;-87
2021/03/19 11:29:08;;;;;;;53.05;33.17;;;;;;;10.07;53.65;71678.31;4968331;28;20086;-83
2021/03/19 11:31:53;;;;;;;58.30;30.73;;;;;;;9.09;53.02;71571.91;4964534;28;20042;-86
2021/03/19 11:34:42;;;;;;;55.22;32.05;;;;;;;10.66;53.30;71748.97;4951834;28;20027;-85
2021/03/19 11:37:19;;;;;;;41.30;25.40;;;;;;;10.62;53.09;71746.97;4964245;28;20051;-84
2021/03/19 11:40:10;;;;;;;66.25;30.88;;;;;;;10.56;52.98;71739.81;4951740;28;20463;-84
2021/03/19 11:42:42;;;;;;;54.92;30.33;;;;;;;9.93;52.59;71668.31;4968580;28;20023;-84
2021/03/19 11:45:18;;;;;;;48.88;29.13;;;;;;;9.97;52.41;71670.34;4969658;28;20026;-85
2021/03/19 11:48:00;;;;;;;56.70;29.95;;;;;;;10.91;52.21;71777.56;4972016;28;20035;-87
2021/03/19 11:50:57;;;;;;;55.65;30.05;;;;;;;9.54;52.18;71623.09;4946259;28;20381;-90
2021/03/19 11:53:28;;;;;;;70.03;32.15;;;;;;;10.61;52.65;71740.88;4963033;28;20042;-88
2021/03/19 11:55:57;;;;;;;61.15;32.20;;;;;;;11.21;52.14;71815.50;4955393;28;20047;-88
2021/03/19 11:58:28;;;;;;;61.47;30.63;;;;;;;10.69;52.38;71755.28;4955799;28;20023;-87